No1 Tokuyama — JK5318 — position and weather

sailwx.info

Track history (hours):
 
Tides and Currents Weather Stations Pressure Air Temp Water Temp Dewpoint Dewpoint Depression Visibility Wind Speed Wind Dir Waves Ship Positions

No1 Tokuyama

Last reported at 2014-Nov-27 23:28 UTC. Time now 2014-Nov-28 00:23 UTC.
Position N 35°22' E 139°51'.

Length 110 m; draft 7 m.

Type: Cargo ship. MMSI: 431400487.

Date/timePositionNaut miles runAvg speedWind from/ knotsBaromVisibWave heightAir tempDewpointWater temp
2014-Nov-27 23:28N 35°22' E 139°51'0 0.1
2014-Nov-27 22:32N 35°22' E 139°51'2 2.4
2014-Nov-27 21:29N 35°22' E 139°48'0 0.0
2014-Nov-27 20:32N 35°22' E 139°48'0 0.0
2014-Nov-27 19:32N 35°22' E 139°48'0 0.0
2014-Nov-27 18:32N 35°22' E 139°48'0 0.1
2014-Nov-27 17:32N 35°22' E 139°48'0 0.0
2014-Nov-27 16:32N 35°22' E 139°48'0 0.0
2014-Nov-27 15:32N 35°22' E 139°48'0 0.0
2014-Nov-27 14:32N 35°22' E 139°48'0 0.0
2014-Nov-27 13:29N 35°22' E 139°48'0 0.0
2014-Nov-27 12:29N 35°22' E 139°48'0 0.0
2014-Nov-27 11:32N 35°22' E 139°48'0 0.1
2014-Nov-27 10:32N 35°22' E 139°48'0 0.0
2014-Nov-27 09:32N 35°22' E 139°48'0 0.1
2014-Nov-27 08:33N 35°22' E 139°48'6 6.2
2014-Nov-27 07:33N 35°26' E 139°41'0 0.0
2014-Nov-27 06:32N 35°26' E 139°41'0 0.0
2014-Nov-27 05:32N 35°26' E 139°41'0 0.0
2014-Nov-27 04:32N 35°26' E 139°41'1 0.8
2014-Nov-27 03:33N 35°26' E 139°42'0 0.0
2014-Nov-27 02:33N 35°26' E 139°42'0 0.0
2014-Nov-27 01:33N 35°26' E 139°42'0 0.0
2014-Nov-27 00:30N 35°26' E 139°42'0 0.0
2014-Nov-26 23:33N 35°26' E 139°42'0 0.1
2014-Nov-26 22:33N 35°26' E 139°42'0 0.0
2014-Nov-26 21:33N 35°26' E 139°42'0 0.0
2014-Nov-26 20:33N 35°26' E 139°42'0 0.0
2014-Nov-26 19:33N 35°26' E 139°42'0 0.0
2014-Nov-26 18:33N 35°26' E 139°42'0 0.0
2014-Nov-26 17:33N 35°26' E 139°42'0 0.0
2014-Nov-26 16:33N 35°26' E 139°42'0 0.0
2014-Nov-26 15:29N 35°26' E 139°42'0 0.0
2014-Nov-26 14:33N 35°26' E 139°42'0 0.0
2014-Nov-26 13:33N 35°26' E 139°42'0 0.0
2014-Nov-26 12:28N 35°26' E 139°42'0 0.0
2014-Nov-26 11:33N 35°26' E 139°42'0 0.0
2014-Nov-26 10:33N 35°26' E 139°42'0 0.0
2014-Nov-26 09:31N 35°26' E 139°42'0 0.0
2014-Nov-26 08:28N 35°26' E 139°42'0 0.0
2014-Nov-26 07:31N 35°26' E 139°42'0 0.0
2014-Nov-26 06:31N 35°26' E 139°42'0 0.5
2014-Nov-26 05:33N 35°26' E 139°42'1211.9
2014-Nov-26 04:33N 35°29' E 139°56'3 0.8
2014-Nov-26 01:12N 35°27' E 139°58'0 0.0
2014-Nov-26 00:18N 35°27' E 139°58'0 0.0
2014-Nov-25 02:31N 35°27' E 139°58'7 7.5
2014-Nov-25 01:32N 35°26' E 139°49'1010.1
2014-Nov-25 00:33N 35°16' E 139°46'1211.5
2014-Nov-24 23:32N 35°05' E 139°43'  
2014-Nov-20 05:31N 34°42' E 134°45'1111.9
2014-Nov-20 04:33N 34°37' E 134°57'1111.3
2014-Nov-20 03:33N 34°36' E 135°11'1312.6
2014-Nov-20 02:33N 34°39' E 135°26'1 0.5
2014-Nov-20 01:18N 34°39' E 135°27'0 0.0
2014-Nov-20 00:30N 34°39' E 135°27'0 0.0
2014-Nov-19 23:30N 34°39' E 135°27'0 0.0
2014-Nov-19 22:30N 34°39' E 135°27'4 4.3
2014-Nov-19 21:33N 34°37' E 135°22'0 0.3
2014-Nov-19 20:34N 34°37' E 135°22'0 0.0
2014-Nov-19 19:28N 34°37' E 135°22'0 0.0
2014-Nov-19 18:33N 34°37' E 135°22'0 0.0
2014-Nov-19 17:28N 34°37' E 135°22'0 0.0
2014-Nov-19 16:28N 34°37' E 135°22'0 0.0
2014-Nov-19 15:16N 34°37' E 135°22'0 0.0
2014-Nov-19 14:34N 34°37' E 135°22'0 0.0
2014-Nov-19 13:28N 34°37' E 135°22'0 0.0
2014-Nov-19 12:09N 34°37' E 135°22'0 0.1
2014-Nov-19 11:22N 34°37' E 135°22'4 5.1
2014-Nov-19 10:33N 34°36' E 135°17'1211.3
2014-Nov-19 09:31N 34°36' E 135°03'9 9.2
2014-Nov-19 08:31N 34°34' E 134°52'  
Track history (hours):
 
Tides and Currents Weather Stations Pressure Air Temp Water Temp Dewpoint Dewpoint Depression Visibility Wind Speed Wind Dir Waves Ship Positions

No1 Tokuyama

Last reported at 2014-Nov-27 23:28 UTC. Time now 2014-Nov-28 00:23 UTC.
Position N 35°22' E 139°51'.

Length 110 m; draft 7 m.

Type: Cargo ship. MMSI: 431400487.

Date/timePositionNaut miles runAvg speedWind from/ knotsBaromVisibWave heightAir tempDewpointWater temp
2014-Nov-27 23:28N 35°22' E 139°51'0 0.1
2014-Nov-27 22:32N 35°22' E 139°51'2 2.4
2014-Nov-27 21:29N 35°22' E 139°48'0 0.0
2014-Nov-27 20:32N 35°22' E 139°48'0 0.0
2014-Nov-27 19:32N 35°22' E 139°48'0 0.0
2014-Nov-27 18:32N 35°22' E 139°48'0 0.1
2014-Nov-27 17:32N 35°22' E 139°48'0 0.0
2014-Nov-27 16:32N 35°22' E 139°48'0 0.0
2014-Nov-27 15:32N 35°22' E 139°48'0 0.0
2014-Nov-27 14:32N 35°22' E 139°48'0 0.0
2014-Nov-27 13:29N 35°22' E 139°48'0 0.0
2014-Nov-27 12:29N 35°22' E 139°48'0 0.0
2014-Nov-27 11:32N 35°22' E 139°48'0 0.1
2014-Nov-27 10:32N 35°22' E 139°48'0 0.0
2014-Nov-27 09:32N 35°22' E 139°48'0 0.1
2014-Nov-27 08:33N 35°22' E 139°48'6 6.2
2014-Nov-27 07:33N 35°26' E 139°41'0 0.0
2014-Nov-27 06:32N 35°26' E 139°41'0 0.0
2014-Nov-27 05:32N 35°26' E 139°41'0 0.0
2014-Nov-27 04:32N 35°26' E 139°41'1 0.8
2014-Nov-27 03:33N 35°26' E 139°42'0 0.0
2014-Nov-27 02:33N 35°26' E 139°42'0 0.0
2014-Nov-27 01:33N 35°26' E 139°42'0 0.0
2014-Nov-27 00:30N 35°26' E 139°42'0 0.0
2014-Nov-26 23:33N 35°26' E 139°42'0 0.1
2014-Nov-26 22:33N 35°26' E 139°42'0 0.0
2014-Nov-26 21:33N 35°26' E 139°42'0 0.0
2014-Nov-26 20:33N 35°26' E 139°42'0 0.0
2014-Nov-26 19:33N 35°26' E 139°42'0 0.0
2014-Nov-26 18:33N 35°26' E 139°42'0 0.0
2014-Nov-26 17:33N 35°26' E 139°42'0 0.0
2014-Nov-26 16:33N 35°26' E 139°42'0 0.0
2014-Nov-26 15:29N 35°26' E 139°42'0 0.0
2014-Nov-26 14:33N 35°26' E 139°42'0 0.0
2014-Nov-26 13:33N 35°26' E 139°42'0 0.0
2014-Nov-26 12:28N 35°26' E 139°42'0 0.0
2014-Nov-26 11:33N 35°26' E 139°42'0 0.0
2014-Nov-26 10:33N 35°26' E 139°42'0 0.0
2014-Nov-26 09:31N 35°26' E 139°42'0 0.0
2014-Nov-26 08:28N 35°26' E 139°42'0 0.0
2014-Nov-26 07:31N 35°26' E 139°42'0 0.0
2014-Nov-26 06:31N 35°26' E 139°42'0 0.5
2014-Nov-26 05:33N 35°26' E 139°42'1211.9
2014-Nov-26 04:33N 35°29' E 139°56'3 0.8
2014-Nov-26 01:12N 35°27' E 139°58'0 0.0
2014-Nov-26 00:18N 35°27' E 139°58'0 0.0
2014-Nov-25 02:31N 35°27' E 139°58'7 7.5
2014-Nov-25 01:32N 35°26' E 139°49'1010.1
2014-Nov-25 00:33N 35°16' E 139°46'1211.5
2014-Nov-24 23:32N 35°05' E 139°43'  
2014-Nov-20 05:31N 34°42' E 134°45'1111.9
2014-Nov-20 04:33N 34°37' E 134°57'1111.3
2014-Nov-20 03:33N 34°36' E 135°11'1312.6
2014-Nov-20 02:33N 34°39' E 135°26'1 0.5
2014-Nov-20 01:18N 34°39' E 135°27'0 0.0
2014-Nov-20 00:30N 34°39' E 135°27'0 0.0
2014-Nov-19 23:30N 34°39' E 135°27'0 0.0
2014-Nov-19 22:30N 34°39' E 135°27'4 4.3
2014-Nov-19 21:33N 34°37' E 135°22'0 0.3
2014-Nov-19 20:34N 34°37' E 135°22'0 0.0
2014-Nov-19 19:28N 34°37' E 135°22'0 0.0
2014-Nov-19 18:33N 34°37' E 135°22'0 0.0
2014-Nov-19 17:28N 34°37' E 135°22'0 0.0
2014-Nov-19 16:28N 34°37' E 135°22'0 0.0
2014-Nov-19 15:16N 34°37' E 135°22'0 0.0
2014-Nov-19 14:34N 34°37' E 135°22'0 0.0
2014-Nov-19 13:28N 34°37' E 135°22'0 0.0
2014-Nov-19 12:09N 34°37' E 135°22'0 0.1
2014-Nov-19 11:22N 34°37' E 135°22'4 5.1
2014-Nov-19 10:33N 34°36' E 135°17'1211.3
2014-Nov-19 09:31N 34°36' E 135°03'9 9.2
2014-Nov-19 08:31N 34°34' E 134°52'  

Dump ship's entire track history